createdAt,value
2023-03-26T00:00:14.971Z,96906.41
2023-03-26T00:01:17.584Z,96891.47
2023-03-26T00:02:20.878Z,96893.72
2023-03-26T00:03:22.694Z,96876.31
2023-03-26T00:04:26.044Z,96888.66
2023-03-26T00:05:27.797Z,96884.47
2023-03-26T00:06:31.804Z,96879.91
2023-03-26T00:07:33.467Z,96892.59
2023-03-26T00:08:36.160Z,96879.16
2023-03-26T00:09:38.101Z,96888.06
2023-03-26T00:10:41.344Z,96880.28
2023-03-26T00:11:43.120Z,96885.59
2023-03-26T00:12:47.076Z,96898.72
2023-03-26T00:13:48.763Z,96888.06
2023-03-26T00:14:51.691Z,96890.66
2023-03-26T00:15:53.631Z,96897.34
2023-03-26T00:16:56.468Z,96900.38
2023-03-26T00:17:58.188Z,96887.41
2023-03-26T00:19:01.319Z,96891.34
2023-03-26T00:20:03.988Z,96892.72
2023-03-26T00:21:08.714Z,96908.09
2023-03-26T00:22:13.376Z,96903.00
2023-03-26T00:23:16.028Z,96898.72
2023-03-26T00:24:17.667Z,96895.53
2023-03-26T00:25:21.401Z,96898.72
2023-03-26T00:26:23.925Z,96894.41
2023-03-26T00:27:27.606Z,96902.22
2023-03-26T00:28:30.767Z,96899.72
2023-03-26T00:29:35.564Z,96908.53
2023-03-26T00:30:37.252Z,96899.59
2023-03-26T00:31:40.919Z,96890.13
2023-03-26T00:32:42.607Z,96896.91
2023-03-26T00:33:45.304Z,96893.06
2023-03-26T00:34:46.967Z,96908.41
2023-03-26T00:35:54.136Z,96911.13
2023-03-26T00:37:02.317Z,96902.44
2023-03-26T00:38:04.998Z,96915.78
2023-03-26T00:39:06.717Z,96909.09
2023-03-26T00:40:10.905Z,96910.81
2023-03-26T00:41:17.643Z,96912.16
2023-03-26T00:42:20.421Z,96891.13
2023-03-26T00:43:22.511Z,96910.00
2023-03-26T00:44:26.563Z,96907.16
2023-03-26T00:45:28.233Z,96909.81
2023-03-26T00:46:31.714Z,96913.63
2023-03-26T00:47:34.557Z,96906.28
2023-03-26T00:48:45.054Z,96909.44
2023-03-26T00:49:48.752Z,96907.88
2023-03-26T00:50:50.498Z,96903.22
2023-03-26T00:51:53.109Z,96912.16
2023-03-26T00:52:55.742Z,96902.66
2023-03-26T00:53:58.915Z,96902.31
2023-03-26T00:55:00.545Z,96903.22
2023-03-26T00:56:03.156Z,96908.56
2023-03-26T00:57:06.849Z,96907.97
2023-03-26T00:58:10.205Z,96915.66
2023-03-26T00:59:12.852Z,96910.00
2023-03-26T01:00:17.116Z,96902.66
2023-03-26T01:01:21.406Z,96906.97
2023-03-26T01:02:23.218Z,96907.28
2023-03-26T01:03:27.784Z,96898.50
2023-03-26T01:04:31.791Z,96896.66
2023-03-26T01:05:48.842Z,96893.84
2023-03-26T01:06:50.833Z,96897.25
2023-03-26T01:07:53.430Z,96899.31
2023-03-26T01:09:00.414Z,96894.78
2023-03-26T01:10:03.167Z,96898.72
2023-03-26T01:11:07.421Z,96897.13
2023-03-26T01:12:11.832Z,96900.06
2023-03-26T01:13:13.464Z,96891.94
2023-03-26T01:14:17.927Z,96886.16
2023-03-26T01:15:21.999Z,96893.06
2023-03-26T01:16:27.394Z,96890.13
2023-03-26T01:17:34.009Z,96894.66
2023-03-26T01:18:41.166Z,96885.72
2023-03-26T01:19:46.140Z,96897.13
2023-03-26T01:20:49.855Z,96894.31
2023-03-26T01:21:51.493Z,96892.84
2023-03-26T01:22:56.210Z,96886.50
2023-03-26T01:24:02.793Z,96873.94
2023-03-26T01:25:07.180Z,96885.28
2023-03-26T01:26:13.469Z,96883.69
2023-03-26T01:27:20.766Z,96881.31
2023-03-26T01:28:22.389Z,96887.19
2023-03-26T01:29:31.579Z,96891.00
2023-03-26T01:30:37.088Z,96880.63
2023-03-26T01:31:41.515Z,96879.28
2023-03-26T01:32:49.897Z,96883.22
2023-03-26T01:33:54.008Z,96873.63
2023-03-26T01:35:04.626Z,96879.97
2023-03-26T01:36:08.494Z,96867.66
2023-03-26T01:37:15.092Z,96866.75
2023-03-26T01:38:23.243Z,96861.88
2023-03-26T01:39:29.246Z,96869.00
2023-03-26T01:40:38.491Z,96859.63
2023-03-26T01:41:43.964Z,96863.34
2023-03-26T01:42:47.515Z,96855.75
2023-03-26T01:43:52.280Z,96871.94
2023-03-26T01:44:55.797Z,96859.50
2023-03-26T01:45:58.974Z,96854.88
2023-03-26T01:47:00.626Z,96857.34
2023-03-26T01:48:03.383Z,96846.97
2023-03-26T01:49:05.408Z,96852.97
2023-03-26T01:50:09.284Z,96843.78
2023-03-26T01:51:11.319Z,96850.81
2023-03-26T01:52:15.722Z,96849.44
2023-03-26T01:53:17.371Z,96851.94
2023-03-26T01:54:21.095Z,96849.78
2023-03-26T01:55:24.453Z,96840.63
2023-03-26T01:56:29.160Z,96862.88
2023-03-26T01:57:34.957Z,96848.66
2023-03-26T01:58:38.352Z,96849.00
2023-03-26T01:59:48.288Z,96843.59
2023-03-26T02:00:53.232Z,96846.50
2023-03-26T02:01:58.049Z,96847.78
2023-03-26T02:03:06.420Z,96855.91
2023-03-26T02:04:10.625Z,96857.34
2023-03-26T02:05:16.012Z,96844.16
2023-03-26T02:06:20.201Z,96844.56
2023-03-26T02:07:25.099Z,96851.34
2023-03-26T02:08:31.566Z,96843.91
2023-03-26T02:09:37.111Z,96851.63
2023-03-26T02:10:40.893Z,96846.50
2023-03-26T02:11:43.474Z,96846.03
2023-03-26T02:12:45.366Z,96844.34
2023-03-26T02:13:47.947Z,96842.75
2023-03-26T02:14:49.598Z,96839.84
2023-03-26T02:15:59.025Z,96842.88
2023-03-26T02:17:00.757Z,96849.34
2023-03-26T02:18:04.067Z,96838.81
2023-03-26T02:19:05.755Z,96841.63
2023-03-26T02:20:10.714Z,96842.09
2023-03-26T02:21:13.541Z,96843.47
2023-03-26T02:22:16.130Z,96846.97
2023-03-26T02:23:17.772Z,96833.84
2023-03-26T02:24:20.400Z,96835.78
2023-03-26T02:25:22.127Z,96833.50
2023-03-26T02:26:26.089Z,96826.06
2023-03-26T02:27:27.685Z,96834.78
2023-03-26T02:28:30.374Z,96825.59
2023-03-26T02:29:31.972Z,96836.91
2023-03-26T02:30:34.550Z,96831.91
2023-03-26T02:31:36.665Z,96830.38
2023-03-26T02:32:40.935Z,96833.84
2023-03-26T02:33:44.989Z,96828.91
2023-03-26T02:34:47.580Z,96827.88
2023-03-26T02:35:49.312Z,96820.53
2023-03-26T02:36:52.000Z,96825.38
2023-03-26T02:37:53.643Z,96822.66
2023-03-26T02:38:57.996Z,96818.16
2023-03-26T02:39:59.771Z,96814.56
2023-03-26T02:41:02.609Z,96815.81
2023-03-26T02:42:05.710Z,96805.44
2023-03-26T02:43:08.593Z,96805.41
2023-03-26T02:44:10.366Z,96807.88
2023-03-26T02:45:12.942Z,96809.09
2023-03-26T02:46:14.593Z,96807.19
2023-03-26T02:47:17.177Z,96801.56
2023-03-26T02:48:18.802Z,96806.88
2023-03-26T02:49:21.508Z,96800.09
2023-03-26T02:50:24.086Z,96801.00
2023-03-26T02:51:25.767Z,96802.47
2023-03-26T02:52:28.374Z,96795.00
2023-03-26T02:53:30.291Z,96793.31
2023-03-26T02:54:33.494Z,96797.38
2023-03-26T02:55:35.140Z,96792.75
2023-03-26T02:56:37.802Z,96792.53
2023-03-26T02:57:41.246Z,96789.25
2023-03-26T02:58:43.842Z,96790.72
2023-03-26T02:59:46.377Z,96785.28
2023-03-26T03:00:50.677Z,96780.69
2023-03-26T03:01:52.507Z,96775.16
2023-03-26T03:02:57.793Z,96774.34
2023-03-26T03:04:01.406Z,96773.09
2023-03-26T03:05:05.984Z,96769.38
2023-03-26T03:06:09.027Z,96767.78
2023-03-26T03:07:14.332Z,96765.78
2023-03-26T03:08:18.187Z,96771.97
2023-03-26T03:09:20.833Z,96770.28
2023-03-26T03:10:23.051Z,96776.94
2023-03-26T03:11:25.639Z,96764.78
2023-03-26T03:12:27.240Z,96773.22
2023-03-26T03:13:31.166Z,96773.91
2023-03-26T03:14:32.773Z,96766.38
2023-03-26T03:15:35.784Z,96765.31
2023-03-26T03:16:37.434Z,96759.47
2023-03-26T03:17:40.489Z,96757.09
2023-03-26T03:18:42.129Z,96758.31
2023-03-26T03:19:45.246Z,96755.28
2023-03-26T03:20:46.923Z,96754.47
2023-03-26T03:21:49.496Z,96752.59
2023-03-26T03:22:51.159Z,96754.38
2023-03-26T03:23:53.741Z,96753.72
2023-03-26T03:24:57.698Z,96750.78
2023-03-26T03:26:00.364Z,96748.75
2023-03-26T03:27:01.996Z,96744.47
2023-03-26T03:28:05.047Z,96751.91
2023-03-26T03:29:08.884Z,96749.09
2023-03-26T03:30:12.698Z,96750.66
2023-03-26T03:31:14.469Z,96750.41
2023-03-26T03:32:17.044Z,96754.06
2023-03-26T03:33:20.325Z,96749.19
2023-03-26T03:34:23.352Z,96745.94
2023-03-26T03:35:25.068Z,96742.06
2023-03-26T03:36:30.425Z,96745.69
2023-03-26T03:37:32.081Z,96744.34
2023-03-26T03:38:34.657Z,96743.09
2023-03-26T03:39:36.254Z,96741.41
2023-03-26T03:40:38.834Z,96743.09
2023-03-26T03:41:40.547Z,96730.88
2023-03-26T03:42:43.141Z,96743.88
2023-03-26T03:43:44.782Z,96737.69
2023-03-26T03:44:48.708Z,96746.47
2023-03-26T03:45:50.320Z,96737.09
2023-03-26T03:46:55.542Z,96736.28
2023-03-26T03:47:57.215Z,96734.97
2023-03-26T03:48:59.820Z,96730.66
2023-03-26T03:50:01.624Z,96738.69
2023-03-26T03:51:04.492Z,96734.84
2023-03-26T03:52:06.918Z,96733.03
2023-03-26T03:53:09.499Z,96736.19
2023-03-26T03:54:11.105Z,96738.34
2023-03-26T03:55:13.972Z,96732.91
2023-03-26T03:56:18.836Z,96725.03
2023-03-26T03:57:21.983Z,96731.69
2023-03-26T03:58:24.354Z,96721.50
2023-03-26T03:59:26.922Z,96722.72
2023-03-26T04:00:30.646Z,96727.25
2023-03-26T04:01:33.228Z,96726.22
2023-03-26T04:02:35.278Z,96715.63
2023-03-26T04:03:39.241Z,96727.34
2023-03-26T04:04:41.113Z,96712.22
2023-03-26T04:05:49.254Z,96720.09
2023-03-26T04:06:51.316Z,96725.28
2023-03-26T04:07:54.021Z,96723.28
2023-03-26T04:08:56.276Z,96725.66
2023-03-26T04:09:59.874Z,96719.47
2023-03-26T04:11:01.603Z,96715.53
2023-03-26T04:12:04.297Z,96714.53
2023-03-26T04:13:05.981Z,96717.53
2023-03-26T04:14:08.573Z,96714.88
2023-03-26T04:15:10.585Z,96713.31
2023-03-26T04:16:14.550Z,96714.97
2023-03-26T04:17:16.223Z,96714.66
2023-03-26T04:18:20.303Z,96715.25
2023-03-26T04:19:22.138Z,96711.72
2023-03-26T04:20:24.733Z,96705.97
2023-03-26T04:21:30.188Z,96705.97
2023-03-26T04:22:35.017Z,96709.25
2023-03-26T04:23:37.743Z,96697.03
2023-03-26T04:24:40.172Z,96691.97
2023-03-26T04:25:43.668Z,96696.03
2023-03-26T04:26:47.962Z,96687.22
2023-03-26T04:27:50.548Z,96691.63
2023-03-26T04:28:53.422Z,96684.09
2023-03-26T04:29:58.128Z,96678.31
2023-03-26T04:31:00.843Z,96682.78
2023-03-26T04:32:07.274Z,96676.16
2023-03-26T04:33:09.268Z,96681.16
2023-03-26T04:34:19.761Z,96672.56
2023-03-26T04:35:21.437Z,96671.97
2023-03-26T04:36:27.068Z,96676.03
2023-03-26T04:37:34.459Z,96666.34
2023-03-26T04:38:40.830Z,96667.38
2023-03-26T04:39:42.493Z,96661.72
2023-03-26T04:40:47.188Z,96653.94
2023-03-26T04:41:48.804Z,96656.28
2023-03-26T04:42:54.499Z,96655.88
2023-03-26T04:43:56.800Z,96654.97
2023-03-26T04:44:59.976Z,96653.38
2023-03-26T04:46:03.222Z,96651.81
2023-03-26T04:47:07.158Z,96644.47
2023-03-26T04:48:08.773Z,96641.97
2023-03-26T04:49:11.326Z,96645.56
2023-03-26T04:50:13.087Z,96651.22
2023-03-26T04:51:18.329Z,96647.72
2023-03-26T04:52:20.150Z,96646.47
2023-03-26T04:53:24.172Z,96647.72
2023-03-26T04:54:25.771Z,96632.25
2023-03-26T04:55:30.914Z,96643.09
2023-03-26T04:56:38.166Z,96636.09
2023-03-26T04:57:43.559Z,96627.31
2023-03-26T04:58:45.172Z,96637.91
2023-03-26T04:59:47.773Z,96636.69
2023-03-26T05:00:49.743Z,96633.63
2023-03-26T05:01:52.681Z,96621.09
2023-03-26T05:02:57.802Z,96627.75
2023-03-26T05:04:00.481Z,96621.22
2023-03-26T05:05:02.959Z,96622.44
2023-03-26T05:06:06.024Z,96617.47
2023-03-26T05:07:09.402Z,96616.69
2023-03-26T05:08:11.988Z,96609.34
2023-03-26T05:09:14.315Z,96605.84
2023-03-26T05:10:17.025Z,96616.34
2023-03-26T05:11:18.677Z,96611.81
2023-03-26T05:12:21.495Z,96603.81
2023-03-26T05:13:23.110Z,96604.06
2023-03-26T05:14:25.738Z,96596.19
2023-03-26T05:15:27.337Z,96591.44
2023-03-26T05:16:30.059Z,96594.16
2023-03-26T05:17:34.746Z,96595.72
2023-03-26T05:18:38.769Z,96585.34
2023-03-26T05:19:41.279Z,96586.47
2023-03-26T05:20:44.572Z,96584.34
2023-03-26T05:21:46.424Z,96587.16
2023-03-26T05:22:49.204Z,96583.41
2023-03-26T05:23:51.027Z,96578.25
2023-03-26T05:24:53.649Z,96582.75
2023-03-26T05:25:55.254Z,96572.59
2023-03-26T05:26:57.984Z,96576.53
2023-03-26T05:27:59.580Z,96573.94
2023-03-26T05:29:02.919Z,96570.69
2023-03-26T05:30:05.513Z,96572.13
2023-03-26T05:31:09.101Z,96575.53
2023-03-26T05:32:11.014Z,96568.69
2023-03-26T05:33:13.708Z,96567.66
2023-03-26T05:34:17.729Z,96565.72
2023-03-26T05:35:19.708Z,96563.69
2023-03-26T05:36:22.421Z,96563.69
2023-03-26T05:37:24.612Z,96562.09
2023-03-26T05:38:28.883Z,96569.09
2023-03-26T05:39:31.489Z,96567.63
2023-03-26T05:40:33.084Z,96559.25
2023-03-26T05:41:35.782Z,96556.53
2023-03-26T05:42:37.934Z,96560.38
2023-03-26T05:43:40.681Z,96562.63
2023-03-26T05:44:42.272Z,96559.25
2023-03-26T05:45:44.915Z,96559.34
2023-03-26T05:46:46.572Z,96551.13
2023-03-26T05:47:49.637Z,96553.13
2023-03-26T05:48:51.973Z,96561.84
2023-03-26T05:49:55.928Z,96546.50
2023-03-26T05:50:58.126Z,96551.47
2023-03-26T05:52:00.762Z,96552.16
2023-03-26T05:53:02.493Z,96550.69
2023-03-26T05:54:05.264Z,96538.38
2023-03-26T05:55:08.073Z,96546.72
2023-03-26T05:56:11.761Z,96537.47
2023-03-26T05:57:13.416Z,96544.03
2023-03-26T05:58:16.137Z,96538.41
2023-03-26T05:59:17.866Z,96537.50
2023-03-26T06:00:20.450Z,96533.22
2023-03-26T06:01:22.641Z,96538.97
2023-03-26T06:02:25.261Z,96539.84
2023-03-26T06:03:27.118Z,96539.16
2023-03-26T06:04:29.896Z,96527.97
2023-03-26T06:05:34.342Z,96533.28
2023-03-26T06:06:36.922Z,96533.28
2023-03-26T06:07:38.971Z,96530.47
2023-03-26T06:08:42.462Z,96519.28
2023-03-26T06:09:45.201Z,96518.63
2023-03-26T06:10:46.804Z,96516.50
2023-03-26T06:11:49.390Z,96517.66
2023-03-26T06:12:51.032Z,96509.41
2023-03-26T06:13:53.643Z,96507.59
2023-03-26T06:14:55.383Z,96501.72
2023-03-26T06:15:58.244Z,96504.88
2023-03-26T06:16:59.879Z,96499.34
2023-03-26T06:18:02.529Z,96494.84
2023-03-26T06:19:04.335Z,96497.69
2023-03-26T06:20:09.532Z,96490.72
2023-03-26T06:21:12.672Z,96483.34
2023-03-26T06:22:15.498Z,96489.22
2023-03-26T06:23:17.175Z,96490.00
2023-03-26T06:24:20.112Z,96488.88
2023-03-26T06:25:21.711Z,96483.22
2023-03-26T06:26:24.283Z,96484.19
2023-03-26T06:27:26.066Z,96481.69
2023-03-26T06:28:28.646Z,96495.56
2023-03-26T06:29:30.523Z,96488.94
2023-03-26T06:30:33.165Z,96483.25
2023-03-26T06:31:34.903Z,96487.88
2023-03-26T06:32:37.605Z,96478.25
2023-03-26T06:33:39.293Z,96474.53
2023-03-26T06:34:42.508Z,96488.44
2023-03-26T06:35:45.219Z,96478.25
2023-03-26T06:36:52.463Z,96474.00
2023-03-26T06:37:54.103Z,96480.00
2023-03-26T06:38:56.662Z,96475.13
2023-03-26T06:39:58.355Z,96482.66
2023-03-26T06:41:03.448Z,96480.03
2023-03-26T06:42:05.082Z,96487.47
2023-03-26T06:43:10.956Z,96483.53
2023-03-26T06:44:12.902Z,96478.63
2023-03-26T06:45:15.808Z,96475.47
2023-03-26T06:46:17.427Z,96478.72
2023-03-26T06:47:20.029Z,96474.47
2023-03-26T06:48:21.631Z,96470.53
2023-03-26T06:49:24.217Z,96476.94
2023-03-26T06:50:25.928Z,96472.78
2023-03-26T06:51:28.534Z,96479.50
2023-03-26T06:52:31.567Z,96472.94
2023-03-26T06:53:34.156Z,96473.19
2023-03-26T06:54:35.939Z,96476.34
2023-03-26T06:55:38.570Z,96476.47
2023-03-26T06:56:40.258Z,96478.81
2023-03-26T06:57:45.185Z,96473.66
2023-03-26T06:58:46.820Z,96469.00
2023-03-26T06:59:49.457Z,96471.91
2023-03-26T07:00:54.237Z,96471.09
2023-03-26T07:01:56.264Z,96471.56
2023-03-26T07:02:58.871Z,96469.66
2023-03-26T07:04:00.658Z,96477.34
2023-03-26T07:05:03.268Z,96469.31
2023-03-26T07:06:06.468Z,96465.69
2023-03-26T07:07:08.514Z,96463.78
2023-03-26T07:08:12.506Z,96461.44
2023-03-26T07:09:15.249Z,96463.88
2023-03-26T07:10:16.965Z,96462.50
2023-03-26T07:11:20.688Z,96455.91
2023-03-26T07:12:22.341Z,96460.22
2023-03-26T07:13:24.939Z,96458.97
2023-03-26T07:14:27.945Z,96456.72
2023-03-26T07:15:30.683Z,96454.06
2023-03-26T07:16:32.363Z,96453.88
2023-03-26T07:17:35.028Z,96451.38
2023-03-26T07:18:36.666Z,96448.75
2023-03-26T07:19:39.250Z,96450.16
2023-03-26T07:20:42.545Z,96447.63
2023-03-26T07:21:46.449Z,96445.00
2023-03-26T07:22:49.709Z,96440.38
2023-03-26T07:23:55.607Z,96435.91
2023-03-26T07:24:59.673Z,96439.84
2023-03-26T07:26:01.954Z,96435.03
2023-03-26T07:27:07.516Z,96433.38
2023-03-26T07:28:14.046Z,96425.88
2023-03-26T07:29:18.249Z,96423.78
2023-03-26T07:30:22.341Z,96422.28
2023-03-26T07:31:27.281Z,96419.47
2023-03-26T07:32:33.421Z,96410.13
2023-03-26T07:33:37.619Z,96403.47
2023-03-26T07:34:47.746Z,96401.00
2023-03-26T07:35:53.030Z,96406.44
2023-03-26T07:36:57.008Z,96397.72
2023-03-26T07:38:06.936Z,96389.94
2023-03-26T07:39:15.195Z,96393.69
2023-03-26T07:40:21.507Z,96389.06
2023-03-26T07:41:24.861Z,96387.56
2023-03-26T07:42:34.982Z,96377.16
2023-03-26T07:44:04.132Z,96372.91
2023-03-26T07:45:13.020Z,96375.50
2023-03-26T07:46:15.810Z,96375.59
2023-03-26T07:47:25.730Z,96376.56
2023-03-26T07:48:30.517Z,96365.34
2023-03-26T07:49:32.838Z,96372.97
2023-03-26T07:50:36.146Z,96377.78
2023-03-26T07:51:38.232Z,96368.75
2023-03-26T07:52:41.751Z,96366.22
2023-03-26T07:53:43.846Z,96360.97
2023-03-26T07:54:48.420Z,96362.81
2023-03-26T07:55:53.616Z,96358.31
2023-03-26T07:56:58.846Z,96355.69
2023-03-26T07:58:09.037Z,96355.94
2023-03-26T07:59:17.682Z,96358.00
2023-03-26T08:00:22.033Z,96366.81
2023-03-26T08:01:29.024Z,96363.41
2023-03-26T08:02:42.022Z,96356.16
2023-03-26T08:03:52.382Z,96357.28
2023-03-26T08:04:59.412Z,96351.72
2023-03-26T08:06:06.581Z,96350.72
2023-03-26T08:07:10.786Z,96351.16
2023-03-26T08:08:17.043Z,96349.03
2023-03-26T08:09:21.159Z,96339.50
2023-03-26T08:10:27.669Z,96339.66
2023-03-26T08:11:34.367Z,96344.38
2023-03-26T08:12:41.561Z,96335.94
2023-03-26T08:13:52.404Z,96330.16
2023-03-26T08:14:57.271Z,96337.16
2023-03-26T08:16:05.402Z,96330.81
2023-03-26T08:17:09.917Z,96333.88
2023-03-26T08:18:21.752Z,96326.31
2023-03-26T08:19:40.839Z,96322.38
2023-03-26T08:20:45.630Z,96322.31
2023-03-26T08:21:48.968Z,96325.03
2023-03-26T08:22:54.170Z,96323.50
2023-03-26T08:24:00.827Z,96319.50
2023-03-26T08:25:17.753Z,96332.44
2023-03-26T08:26:27.353Z,96327.28
2023-03-26T08:27:37.818Z,96321.16
2023-03-26T08:28:48.565Z,96320.59
2023-03-26T08:29:51.654Z,96324.44
2023-03-26T08:30:55.424Z,96319.59
2023-03-26T08:31:58.345Z,96324.16
2023-03-26T08:33:02.467Z,96321.34
2023-03-26T08:34:05.086Z,96316.06
2023-03-26T08:35:09.396Z,96314.25
2023-03-26T08:36:12.076Z,96307.03
2023-03-26T08:37:13.740Z,96313.69
2023-03-26T08:38:17.755Z,96312.66
2023-03-26T08:39:22.180Z,96308.47
2023-03-26T08:40:37.571Z,96313.53
2023-03-26T08:41:56.283Z,96312.94
2023-03-26T08:43:27.286Z,96309.78
2023-03-26T08:45:06.016Z,96310.88
2023-03-26T08:46:28.443Z,96308.06
2023-03-26T08:48:07.897Z,96298.97
2023-03-26T08:49:25.546Z,96297.50
2023-03-26T08:50:44.242Z,96296.00
2023-03-26T08:52:07.362Z,96286.41
2023-03-26T08:53:23.020Z,96288.78
2023-03-26T08:55:04.202Z,96275.47
2023-03-26T08:56:08.959Z,96280.03
2023-03-26T08:57:44.092Z,96282.28
2023-03-26T08:59:18.325Z,96285.72
2023-03-26T09:00:37.243Z,96288.16
2023-03-26T09:02:00.849Z,96279.59
2023-03-26T09:03:14.214Z,96277.69
2023-03-26T09:04:25.274Z,96280.13
2023-03-26T09:05:49.466Z,96280.59
2023-03-26T09:07:09.922Z,96285.34
2023-03-26T09:08:36.732Z,96283.75
2023-03-26T09:09:56.315Z,96275.09
2023-03-26T09:11:24.682Z,96282.19
2023-03-26T09:13:02.901Z,96283.69
2023-03-26T09:14:41.003Z,96286.13
2023-03-26T09:16:26.736Z,96278.06
2023-03-26T09:18:02.745Z,96278.78
2023-03-26T09:19:37.465Z,96276.41
2023-03-26T09:20:59.740Z,96293.09
2023-03-26T09:22:18.554Z,96300.41
2023-03-26T09:24:05.873Z,96294.75
2023-03-26T09:25:26.463Z,96296.66
2023-03-26T09:26:33.578Z,96297.72
2023-03-26T09:27:37.171Z,96301.91
2023-03-26T09:29:27.143Z,96299.28
2023-03-26T09:30:37.967Z,96305.34
2023-03-26T09:32:05.648Z,96297.72
2023-03-26T09:33:32.376Z,96310.41
2023-03-26T09:34:36.710Z,96308.91
2023-03-26T09:36:04.138Z,96307.28
2023-03-26T09:37:14.855Z,96302.03
2023-03-26T09:38:24.036Z,96308.47
2023-03-26T09:39:37.771Z,96305.97
2023-03-26T09:40:44.037Z,96298.06
2023-03-26T09:41:54.181Z,96293.19
2023-03-26T09:42:56.968Z,96295.03
2023-03-26T09:44:28.487Z,96296.25
2023-03-26T09:45:37.271Z,96299.75
2023-03-26T09:46:44.486Z,96289.34
2023-03-26T09:48:15.127Z,96287.00
2023-03-26T09:49:28.586Z,96282.72
2023-03-26T09:50:36.546Z,96290.75
2023-03-26T09:52:10.121Z,96283.25
2023-03-26T09:53:39.105Z,96296.75
2023-03-26T09:54:55.190Z,96304.47
2023-03-26T09:56:04.865Z,96309.78
2023-03-26T09:57:09.331Z,96310.03
2023-03-26T09:58:39.017Z,96303.72
2023-03-26T09:59:56.716Z,96306.06
2023-03-26T10:01:00.928Z,96304.31
2023-03-26T10:02:11.772Z,96307.28
2023-03-26T10:03:19.203Z,96301.44
2023-03-26T10:05:05.022Z,96303.19
2023-03-26T10:06:15.581Z,96301.03
2023-03-26T10:07:30.115Z,96299.72
2023-03-26T10:08:37.048Z,96310.59
2023-03-26T10:09:44.946Z,96307.19
2023-03-26T10:10:50.679Z,96314.38
2023-03-26T10:12:02.676Z,96315.22
2023-03-26T10:13:15.042Z,96307.91
2023-03-26T10:14:20.716Z,96304.47
2023-03-26T10:15:27.566Z,96303.19
2023-03-26T10:16:34.976Z,96301.41
2023-03-26T10:17:43.670Z,96302.00
2023-03-26T10:18:54.107Z,96298.06
2023-03-26T10:20:08.782Z,96291.88
2023-03-26T10:21:13.626Z,96287.09
2023-03-26T10:22:23.912Z,96282.72
2023-03-26T10:23:39.818Z,96282.88
2023-03-26T10:24:52.767Z,96276.63
2023-03-26T10:26:04.438Z,96276.28
2023-03-26T10:27:16.433Z,96277.88
2023-03-26T10:28:26.274Z,96275.72
2023-03-26T10:29:42.269Z,96270.97
2023-03-26T10:31:03.665Z,96277.00
2023-03-26T10:32:11.416Z,96279.53
2023-03-26T10:33:17.997Z,96284.59
2023-03-26T10:34:30.277Z,96280.41
2023-03-26T10:35:40.001Z,96275.72
2023-03-26T10:36:44.847Z,96277.72
2023-03-26T10:37:55.819Z,96276.13
2023-03-26T10:39:04.967Z,96276.84
2023-03-26T10:40:24.572Z,96275.25
2023-03-26T10:41:29.298Z,96272.41
2023-03-26T10:42:45.281Z,96270.22
2023-03-26T10:44:22.751Z,96264.78
2023-03-26T10:45:31.976Z,96259.25
2023-03-26T10:46:53.503Z,96256.38
2023-03-26T10:48:18.138Z,96253.69
2023-03-26T10:49:49.115Z,96248.78
2023-03-26T10:50:54.358Z,96247.59
2023-03-26T10:51:57.467Z,96230.31
2023-03-26T10:53:01.876Z,96242.09
2023-03-26T10:54:07.771Z,96231.44
2023-03-26T10:55:12.587Z,96240.34
2023-03-26T10:56:17.291Z,96232.06
2023-03-26T10:57:26.240Z,96233.56
2023-03-26T10:58:29.489Z,96232.03
2023-03-26T10:59:51.992Z,96232.50
2023-03-26T11:00:55.959Z,96233.47
2023-03-26T11:02:05.836Z,96235.91
2023-03-26T11:03:18.267Z,96233.03
2023-03-26T11:04:28.326Z,96230.50
2023-03-26T11:05:44.872Z,96234.50
2023-03-26T11:06:50.988Z,96232.25
2023-03-26T11:07:54.612Z,96227.34
2023-03-26T11:08:59.456Z,96222.63
2023-03-26T11:10:03.273Z,96220.19
2023-03-26T11:11:10.242Z,96218.34
2023-03-26T11:12:26.661Z,96216.97
2023-03-26T11:13:40.047Z,96214.00
2023-03-26T11:14:45.044Z,96209.72
2023-03-26T11:15:48.113Z,96203.88
2023-03-26T11:16:56.893Z,96202.41
2023-03-26T11:18:06.013Z,96206.03
2023-03-26T11:19:11.804Z,96206.22
2023-03-26T11:20:18.841Z,96211.72
2023-03-26T11:21:25.279Z,96203.44
2023-03-26T11:22:29.885Z,96197.75
2023-03-26T11:23:35.802Z,96200.91
2023-03-26T11:24:48.089Z,96200.09
2023-03-26T11:26:01.663Z,96190.84
2023-03-26T11:27:14.890Z,96192.69
2023-03-26T11:28:26.541Z,96198.34
2023-03-26T11:29:38.912Z,96198.34
2023-03-26T11:30:42.976Z,96187.97
2023-03-26T11:31:52.055Z,96185.00
2023-03-26T11:32:55.694Z,96192.31
2023-03-26T11:33:59.828Z,96184.28
2023-03-26T11:35:04.198Z,96184.28
2023-03-26T11:36:08.093Z,96180.19
2023-03-26T11:37:16.748Z,96184.28
2023-03-26T11:38:20.886Z,96173.81
2023-03-26T11:39:23.921Z,96174.31
2023-03-26T11:40:28.841Z,96179.13
2023-03-26T11:41:31.143Z,96178.84
2023-03-26T11:42:34.215Z,96171.00
2023-03-26T11:43:36.376Z,96162.22
2023-03-26T11:44:39.268Z,96164.81
2023-03-26T11:45:42.581Z,96166.25
2023-03-26T11:46:45.890Z,96165.41
2023-03-26T11:47:52.936Z,96167.63
2023-03-26T11:48:57.486Z,96158.28
2023-03-26T11:50:00.237Z,96163.25
2023-03-26T11:51:05.140Z,96153.78
2023-03-26T11:52:08.870Z,96158.47
2023-03-26T11:53:12.876Z,96152.56
2023-03-26T11:54:16.371Z,96152.28
2023-03-26T11:55:18.022Z,96149.09
2023-03-26T11:56:23.846Z,96153.06
2023-03-26T11:57:26.933Z,96159.84
2023-03-26T11:58:31.948Z,96155.84
2023-03-26T11:59:45.270Z,96156.78
2023-03-26T12:00:56.693Z,96150.44
2023-03-26T12:01:59.132Z,96147.88
2023-03-26T12:03:01.832Z,96144.81
2023-03-26T12:04:04.483Z,96150.44
2023-03-26T12:05:20.451Z,96142.81
2023-03-26T12:06:25.627Z,96133.72
2023-03-26T12:07:32.672Z,96140.56
2023-03-26T12:08:39.721Z,96145.44
2023-03-26T12:09:49.622Z,96126.69
2023-03-26T12:10:53.072Z,96137.88
2023-03-26T12:12:00.196Z,96123.97
2023-03-26T12:13:02.842Z,96123.19
2023-03-26T12:14:05.648Z,96118.63
2023-03-26T12:15:12.258Z,96120.28
2023-03-26T12:16:15.758Z,96114.28
2023-03-26T12:17:31.240Z,96129.63
2023-03-26T12:18:33.654Z,96125.53
2023-03-26T12:19:40.973Z,96121.94
2023-03-26T12:20:42.580Z,96127.88
2023-03-26T12:21:46.681Z,96131.28
2023-03-26T12:22:48.457Z,96123.75
2023-03-26T12:23:59.924Z,96127.97
2023-03-26T12:25:02.878Z,96124.47
2023-03-26T12:26:07.232Z,96125.38
2023-03-26T12:27:21.998Z,96118.38
2023-03-26T12:28:23.681Z,96124.00
2023-03-26T12:29:27.733Z,96115.50
2023-03-26T12:30:31.073Z,96115.50
2023-03-26T12:31:41.450Z,96116.66
2023-03-26T12:32:46.670Z,96106.63
2023-03-26T12:34:04.923Z,96109.72
2023-03-26T12:35:08.177Z,96119.22
2023-03-26T12:36:25.538Z,96094.28
2023-03-26T12:37:38.642Z,96095.56
2023-03-26T12:38:42.378Z,96096.16
2023-03-26T12:40:07.330Z,96098.94
2023-03-26T12:42:52.683Z,96100.53
2023-03-26T12:44:46.260Z,96096.03
2023-03-26T12:44:50.336Z,96085.97
2023-03-26T12:45:20.015Z,96086.75
2023-03-26T12:47:56.422Z,96091.28
2023-03-26T12:48:01.545Z,96085.00
2023-03-26T12:49:08.767Z,96088.78
2023-03-26T12:50:13.032Z,96100.38
2023-03-26T12:51:18.659Z,96087.06
2023-03-26T12:52:28.195Z,96094.69
2023-03-26T12:53:42.894Z,96094.97
2023-03-26T12:54:48.354Z,96090.91
2023-03-26T12:55:56.001Z,96086.16
2023-03-26T12:57:11.800Z,96092.88
2023-03-26T12:59:07.961Z,96087.66
2023-03-26T13:00:28.925Z,96083.59